createdAt,value
2023-12-07T00:02:08.114Z,100326.52
2023-12-07T00:04:36.864Z,100326.15
2023-12-07T00:07:05.504Z,100329.45
2023-12-07T00:09:35.353Z,100330.17
2023-12-07T00:12:04.744Z,100331.67
2023-12-07T00:14:33.432Z,100332.08
2023-12-07T00:17:02.310Z,100329.48
2023-12-07T00:19:31.552Z,100336.53
2023-12-07T00:22:00.565Z,100333.84
2023-12-07T00:24:29.261Z,100334.90
2023-12-07T00:27:01.044Z,100337.79
2023-12-07T00:29:29.906Z,100334.22
2023-12-07T00:32:01.646Z,100336.36
2023-12-07T00:34:30.640Z,100335.66
2023-12-07T00:37:00.009Z,100337.83
2023-12-07T00:39:28.982Z,100340.55
2023-12-07T00:42:01.049Z,100346.45
2023-12-07T00:44:30.037Z,100345.45
2023-12-07T00:47:02.108Z,100349.28
2023-12-07T00:49:31.553Z,100350.27
2023-12-07T00:52:02.966Z,100350.82
2023-12-07T00:54:31.656Z,100357.98
2023-12-07T00:57:02.367Z,100354.23
2023-12-07T00:59:35.700Z,100357.54
2023-12-07T01:02:06.304Z,100357.50
2023-12-07T01:04:53.939Z,100359.69
2023-12-07T01:07:22.905Z,100361.17
2023-12-07T01:09:52.236Z,100364.22
2023-12-07T01:12:21.786Z,100364.98
2023-12-07T01:14:50.420Z,100365.84
2023-12-07T01:17:19.508Z,100372.11
2023-12-07T01:19:48.300Z,100375.97
2023-12-07T01:22:16.880Z,100376.20
2023-12-07T01:24:45.842Z,100376.86
2023-12-07T01:27:14.260Z,100370.30
2023-12-07T01:29:42.790Z,100380.48
2023-12-07T01:32:11.212Z,100383.27
2023-12-07T01:34:39.693Z,100386.31
2023-12-07T01:37:09.233Z,100385.45
2023-12-07T01:39:37.686Z,100387.80
2023-12-07T01:42:06.179Z,100391.34
2023-12-07T01:44:34.853Z,100396.83
2023-12-07T01:47:03.945Z,100396.94
2023-12-07T01:49:32.643Z,100400.23
2023-12-07T01:52:02.601Z,100401.08
2023-12-07T01:54:31.642Z,100402.85
2023-12-07T01:57:00.509Z,100402.20
2023-12-07T01:59:29.641Z,100401.73
2023-12-07T02:01:58.114Z,100404.09
2023-12-07T02:04:26.849Z,100404.61
2023-12-07T02:06:58.611Z,100404.11
2023-12-07T02:09:29.705Z,100403.42
2023-12-07T02:11:59.508Z,100405.36
2023-12-07T02:14:31.475Z,100409.48
2023-12-07T02:17:25.867Z,100412.02
2023-12-07T02:20:23.226Z,100412.23
2023-12-07T02:22:55.901Z,100416.71
2023-12-07T02:25:39.072Z,100416.91
2023-12-07T02:28:08.446Z,100416.75
2023-12-07T02:30:37.122Z,100423.34
2023-12-07T02:33:06.598Z,100419.61
2023-12-07T02:35:37.085Z,100423.83
2023-12-07T02:38:07.707Z,100425.29
2023-12-07T02:40:37.429Z,100427.77
2023-12-07T02:43:06.800Z,100429.02
2023-12-07T02:45:35.690Z,100421.62
2023-12-07T02:48:04.894Z,100428.15
2023-12-07T02:50:33.201Z,100430.22
2023-12-07T02:53:01.964Z,100429.30
2023-12-07T02:55:30.574Z,100431.11
2023-12-07T02:57:59.181Z,100430.49
2023-12-07T03:00:27.695Z,100432.20
2023-12-07T03:02:56.902Z,100434.86
2023-12-07T03:05:25.646Z,100430.92
2023-12-07T03:07:54.189Z,100435.27
2023-12-07T03:10:22.764Z,100434.09
2023-12-07T03:12:51.128Z,100435.71
2023-12-07T03:15:19.729Z,100436.10
2023-12-07T03:17:48.344Z,100436.69
2023-12-07T03:20:16.789Z,100437.06
2023-12-07T03:22:46.174Z,100440.10
2023-12-07T03:25:15.000Z,100441.95
2023-12-07T03:27:43.551Z,100442.63
2023-12-07T03:30:12.453Z,100442.74
2023-12-07T03:32:40.946Z,100439.45
2023-12-07T03:35:09.295Z,100452.17
2023-12-07T03:37:37.685Z,100455.88
2023-12-07T03:40:07.229Z,100459.45
2023-12-07T03:42:50.676Z,100463.98
2023-12-07T03:45:24.326Z,100469.34
2023-12-07T03:47:52.884Z,100471.74
2023-12-07T03:50:21.694Z,100470.05
2023-12-07T03:52:50.464Z,100469.58
2023-12-07T03:55:18.958Z,100473.55
2023-12-07T03:57:47.744Z,100474.30
2023-12-07T04:00:16.344Z,100476.30
2023-12-07T04:02:44.882Z,100479.42
2023-12-07T04:05:14.001Z,100480.27
2023-12-07T04:07:43.239Z,100477.91
2023-12-07T04:10:12.253Z,100479.00
2023-12-07T04:12:41.003Z,100479.62
2023-12-07T04:15:10.037Z,100478.63
2023-12-07T04:17:38.529Z,100478.77
2023-12-07T04:20:08.811Z,100474.52
2023-12-07T04:22:37.194Z,100476.47
2023-12-07T04:25:06.504Z,100480.04
2023-12-07T04:27:35.468Z,100477.05
2023-12-07T04:30:05.018Z,100479.56
2023-12-07T04:32:33.457Z,100482.82
2023-12-07T04:35:02.135Z,100478.20
2023-12-07T04:37:30.800Z,100482.46
2023-12-07T04:40:00.236Z,100482.83
2023-12-07T04:42:28.709Z,100486.38
2023-12-07T04:44:57.405Z,100490.69
2023-12-07T04:47:26.274Z,100495.61
2023-12-07T04:49:54.675Z,100498.79
2023-12-07T04:52:23.477Z,100502.08
2023-12-07T04:54:52.204Z,100506.73
2023-12-07T04:57:20.642Z,100506.89
2023-12-07T04:59:49.223Z,100510.60
2023-12-07T05:02:19.836Z,100517.48
2023-12-07T05:04:48.530Z,100515.86
2023-12-07T05:07:17.253Z,100520.38
2023-12-07T05:09:45.708Z,100518.25
2023-12-07T05:12:14.275Z,100516.91
2023-12-07T05:14:43.100Z,100518.60
2023-12-07T05:17:11.625Z,100520.50
2023-12-07T05:19:40.040Z,100524.25
2023-12-07T05:22:09.566Z,100522.16
2023-12-07T05:24:38.142Z,100530.89
2023-12-07T05:27:06.609Z,100534.05
2023-12-07T05:29:35.187Z,100538.81
2023-12-07T05:32:03.916Z,100534.52
2023-12-07T05:34:32.487Z,100539.15
2023-12-07T05:37:03.229Z,100539.20
2023-12-07T05:39:31.873Z,100539.17
2023-12-07T05:42:00.498Z,100542.48
2023-12-07T05:44:29.645Z,100546.94
2023-12-07T05:46:59.167Z,100547.96
2023-12-07T05:49:30.040Z,100551.89
2023-12-07T05:51:58.610Z,100554.95
2023-12-07T05:54:27.283Z,100559.95
2023-12-07T05:56:56.052Z,100560.71
2023-12-07T05:59:24.528Z,100561.11
2023-12-07T06:01:54.813Z,100559.98
2023-12-07T06:04:23.381Z,100562.96
2023-12-07T06:06:52.847Z,100567.48
2023-12-07T06:09:21.472Z,100569.39
2023-12-07T06:11:50.113Z,100574.70
2023-12-07T06:14:18.794Z,100574.83
2023-12-07T06:16:47.610Z,100573.64
2023-12-07T06:19:16.651Z,100579.38
2023-12-07T06:21:48.044Z,100578.80
2023-12-07T06:24:16.724Z,100578.94
2023-12-07T06:26:45.904Z,100583.70
2023-12-07T06:29:14.396Z,100582.54
2023-12-07T06:31:46.388Z,100582.52
2023-12-07T06:34:15.175Z,100588.05
2023-12-07T06:36:45.270Z,100587.77
2023-12-07T06:39:13.746Z,100591.79
2023-12-07T06:41:42.846Z,100596.85
2023-12-07T06:44:11.320Z,100596.90
2023-12-07T06:46:40.893Z,100603.38
2023-12-07T06:49:09.668Z,100599.90
2023-12-07T06:51:39.124Z,100603.95
2023-12-07T06:54:07.604Z,100605.10
2023-12-07T06:56:36.340Z,100609.95
2023-12-07T06:59:05.181Z,100609.20
2023-12-07T07:01:34.466Z,100613.66
2023-12-07T07:04:03.339Z,100612.36
2023-12-07T07:06:32.157Z,100611.32
2023-12-07T07:09:01.061Z,100610.52
2023-12-07T07:11:30.461Z,100611.52
2023-12-07T07:13:59.249Z,100612.26
2023-12-07T07:16:28.094Z,100615.48
2023-12-07T07:18:57.107Z,100616.91
2023-12-07T07:21:26.030Z,100622.46
2023-12-07T07:23:54.542Z,100625.39
2023-12-07T07:26:24.209Z,100626.77
2023-12-07T07:28:54.651Z,100624.92
2023-12-07T07:31:24.054Z,100625.85
2023-12-07T07:34:00.385Z,100627.81
2023-12-07T07:36:30.733Z,100631.84
2023-12-07T07:39:00.234Z,100632.77
2023-12-07T07:41:29.244Z,100629.30
2023-12-07T07:44:00.875Z,100629.73
2023-12-07T07:46:31.554Z,100635.98
2023-12-07T07:49:01.009Z,100643.86
2023-12-07T07:51:30.247Z,100647.50
2023-12-07T07:54:01.825Z,100649.95
2023-12-07T07:56:30.629Z,100650.23
2023-12-07T07:59:02.409Z,100654.02
2023-12-07T08:01:32.524Z,100658.84
2023-12-07T08:04:02.009Z,100654.35
2023-12-07T08:06:33.001Z,100655.63
2023-12-07T08:09:06.429Z,100651.26
2023-12-07T08:11:35.680Z,100649.25
2023-12-07T08:14:04.687Z,100650.23
2023-12-07T08:16:33.823Z,100650.73
2023-12-07T08:19:03.728Z,100651.30
2023-12-07T08:21:33.091Z,100652.56
2023-12-07T08:24:02.664Z,100651.09
2023-12-07T08:26:32.107Z,100656.07
2023-12-07T08:29:01.136Z,100654.27
2023-12-07T08:31:31.041Z,100654.39
2023-12-07T08:34:02.400Z,100653.56
2023-12-07T08:36:41.677Z,100658.59
2023-12-07T08:39:11.397Z,100662.14
2023-12-07T08:41:40.639Z,100665.36
2023-12-07T08:44:09.593Z,100661.20
2023-12-07T08:46:38.528Z,100668.25
2023-12-07T08:49:08.301Z,100664.00
2023-12-07T08:51:37.403Z,100667.81
2023-12-07T08:54:07.308Z,100666.33
2023-12-07T08:56:36.388Z,100662.96
2023-12-07T08:59:04.885Z,100664.05
2023-12-07T09:01:34.670Z,100666.05
2023-12-07T09:04:03.692Z,100671.70
2023-12-07T09:06:33.146Z,100673.66
2023-12-07T09:09:01.886Z,100676.41
2023-12-07T09:11:30.890Z,100679.73
2023-12-07T09:13:59.665Z,100679.25
2023-12-07T09:16:28.278Z,100674.83
2023-12-07T09:18:57.576Z,100675.17
2023-12-07T09:21:27.566Z,100676.77
2023-12-07T09:23:56.354Z,100673.20
2023-12-07T09:26:25.088Z,100671.65
2023-12-07T09:28:54.638Z,100674.60
2023-12-07T09:31:24.244Z,100674.06
2023-12-07T09:33:55.268Z,100676.36
2023-12-07T09:36:25.738Z,100674.29
2023-12-07T09:38:55.641Z,100677.95
2023-12-07T09:41:25.655Z,100678.67
2023-12-07T09:43:54.761Z,100670.02
2023-12-07T09:46:23.880Z,100670.33
2023-12-07T09:48:53.390Z,100658.11
2023-12-07T09:51:25.784Z,100672.83
2023-12-07T09:53:56.357Z,100671.93
2023-12-07T09:56:25.653Z,100671.25
2023-12-07T09:58:54.371Z,100671.11
2023-12-07T10:01:30.622Z,100669.89
2023-12-07T10:04:20.274Z,100668.47
2023-12-07T10:06:50.651Z,100669.09
2023-12-07T10:09:28.020Z,100668.91
2023-12-07T10:12:06.852Z,100670.39
2023-12-07T10:14:36.124Z,100671.65
2023-12-07T10:17:05.631Z,100670.78
2023-12-07T10:19:34.675Z,100673.85
2023-12-07T10:22:15.015Z,100671.41
2023-12-07T10:24:44.689Z,100668.65
2023-12-07T10:27:13.868Z,100671.83
2023-12-07T10:29:43.094Z,100673.40
2023-12-07T10:32:12.698Z,100675.47
2023-12-07T10:34:41.726Z,100678.80
2023-12-07T10:37:10.424Z,100677.86
2023-12-07T10:39:39.066Z,100679.20
2023-12-07T10:42:13.579Z,100680.45
2023-12-07T10:44:46.774Z,100676.64
2023-12-07T10:47:16.173Z,100676.45
2023-12-07T10:49:49.200Z,100672.96
2023-12-07T10:52:23.874Z,100673.38
2023-12-07T10:55:04.527Z,100673.33
2023-12-07T10:57:39.130Z,100673.02
2023-12-07T11:00:12.692Z,100673.98
2023-12-07T11:02:44.300Z,100682.34
2023-12-07T11:05:13.974Z,100681.20
2023-12-07T11:07:51.499Z,100681.03
2023-12-07T11:10:30.498Z,100678.78
2023-12-07T11:13:17.798Z,100676.17
2023-12-07T11:15:48.232Z,100667.98
2023-12-07T11:18:17.371Z,100667.34
2023-12-07T11:20:50.576Z,100667.20
2023-12-07T11:23:20.504Z,100669.38
2023-12-07T11:25:51.103Z,100666.98
2023-12-07T11:28:36.028Z,100669.77
2023-12-07T11:31:05.435Z,100668.96
2023-12-07T11:33:34.202Z,100668.63
2023-12-07T11:36:02.956Z,100665.55
2023-12-07T11:38:32.000Z,100665.81
2023-12-07T11:41:03.979Z,100662.52
2023-12-07T11:43:42.511Z,100662.48
2023-12-07T11:46:12.174Z,100665.80
2023-12-07T11:48:40.869Z,100664.19
2023-12-07T11:51:10.359Z,100667.64
2023-12-07T11:53:40.321Z,100667.70
2023-12-07T11:56:14.890Z,100667.15
2023-12-07T11:58:46.249Z,100665.91
2023-12-07T12:01:15.026Z,100659.20
2023-12-07T12:03:44.779Z,100657.59
2023-12-07T12:06:13.777Z,100657.37
2023-12-07T12:08:44.497Z,100653.77
2023-12-07T12:11:13.865Z,100653.85
2023-12-07T12:13:43.074Z,100652.12
2023-12-07T12:16:13.011Z,100649.30
2023-12-07T12:18:41.971Z,100648.59
2023-12-07T12:21:11.530Z,100649.99
2023-12-07T12:23:41.493Z,100649.33
2023-12-07T12:26:12.498Z,100648.80
2023-12-07T12:28:45.107Z,100651.70
2023-12-07T12:31:15.235Z,100647.73
2023-12-07T12:33:44.049Z,100646.17
2023-12-07T12:36:13.262Z,100647.91
2023-12-07T12:38:44.336Z,100645.98
2023-12-07T12:41:14.971Z,100648.57
2023-12-07T12:43:46.741Z,100652.86
2023-12-07T12:46:18.100Z,100657.19
2023-12-07T12:49:01.627Z,100655.66
2023-12-07T12:51:33.613Z,100654.83
2023-12-07T12:54:02.761Z,100658.83
2023-12-07T12:56:32.168Z,100661.30
2023-12-07T12:59:05.262Z,100666.52
2023-12-07T13:01:35.918Z,100667.27
2023-12-07T13:04:05.541Z,100667.66
2023-12-07T13:06:35.015Z,100659.90
2023-12-07T13:09:04.590Z,100655.55
2023-12-07T13:11:34.210Z,100666.95
2023-12-07T13:14:09.578Z,100666.25
2023-12-07T13:16:39.335Z,100664.66
2023-12-07T13:19:10.087Z,100664.98
2023-12-07T13:21:39.819Z,100662.48
2023-12-07T13:24:14.284Z,100665.24
2023-12-07T13:26:42.924Z,100667.80
2023-12-07T13:29:18.239Z,100669.23
2023-12-07T13:31:52.230Z,100655.31
2023-12-07T13:34:24.150Z,100665.42
2023-12-07T13:36:54.495Z,100664.07
2023-12-07T13:39:30.404Z,100663.50
2023-12-07T13:42:04.175Z,100665.98
2023-12-07T13:44:34.801Z,100663.59
2023-12-07T13:47:05.977Z,100669.45
2023-12-07T13:49:35.703Z,100674.99
2023-12-07T13:52:08.648Z,100675.79
2023-12-07T13:54:51.115Z,100677.02
2023-12-07T13:57:28.098Z,100672.06
2023-12-07T13:59:59.713Z,100674.40
2023-12-07T14:02:32.335Z,100677.12
2023-12-07T14:05:04.807Z,100680.10
2023-12-07T14:07:36.738Z,100681.75
2023-12-07T14:10:10.490Z,100679.82
2023-12-07T14:12:48.405Z,100680.36
2023-12-07T14:15:23.622Z,100681.30
2023-12-07T14:18:03.085Z,100685.15
2023-12-07T14:20:50.378Z,100689.01
2023-12-07T14:23:24.547Z,100686.79
2023-12-07T14:26:02.866Z,100681.40
2023-12-07T14:28:36.006Z,100683.27
2023-12-07T14:31:06.480Z,100689.23
2023-12-07T14:33:37.648Z,100693.66
2023-12-07T14:36:08.791Z,100698.30
2023-12-07T14:38:41.129Z,100700.40
2023-12-07T14:41:14.412Z,100703.36
2023-12-07T14:43:45.716Z,100704.70
2023-12-07T14:46:16.125Z,100705.90
2023-12-07T14:48:46.345Z,100707.56
2023-12-07T14:51:22.104Z,100703.32
2023-12-07T14:53:51.877Z,100705.92
2023-12-07T14:56:24.484Z,100709.40
2023-12-07T14:58:54.240Z,100707.84
2023-12-07T15:01:24.936Z,100711.42
2023-12-07T15:03:57.059Z,100713.66
2023-12-07T15:06:31.709Z,100706.11
2023-12-07T15:09:09.018Z,100707.79
2023-12-07T15:11:43.498Z,100705.32
2023-12-07T15:14:25.610Z,100704.88
2023-12-07T15:17:10.227Z,100702.84
2023-12-07T15:19:42.001Z,100701.94
2023-12-07T15:22:12.537Z,100702.13
2023-12-07T15:24:41.842Z,100702.88
2023-12-07T15:27:11.421Z,100700.47
2023-12-07T15:29:41.995Z,100701.02
2023-12-07T15:32:13.040Z,100699.41
2023-12-07T15:34:44.032Z,100704.77
2023-12-07T15:37:14.948Z,100706.63
2023-12-07T15:39:45.964Z,100710.10
2023-12-07T15:42:16.010Z,100708.10
2023-12-07T15:44:45.041Z,100705.85
2023-12-07T15:47:14.676Z,100705.92
2023-12-07T15:49:44.989Z,100702.81
2023-12-07T15:52:14.761Z,100700.57
2023-12-07T15:54:45.950Z,100704.63
2023-12-07T15:57:16.210Z,100704.94
2023-12-07T15:59:46.677Z,100702.70
2023-12-07T16:02:20.133Z,100703.69
2023-12-07T16:04:50.177Z,100705.14
2023-12-07T16:07:19.908Z,100700.23
2023-12-07T16:09:50.500Z,100704.52
2023-12-07T16:12:19.872Z,100696.91
2023-12-07T16:14:51.036Z,100702.02
2023-12-07T16:17:22.325Z,100707.41
2023-12-07T16:19:53.605Z,100709.61
2023-12-07T16:22:23.959Z,100707.66
2023-12-07T16:24:55.538Z,100705.30
2023-12-07T16:27:29.658Z,100707.16
2023-12-07T16:30:01.870Z,100709.75
2023-12-07T16:32:32.305Z,100705.66
2023-12-07T16:35:02.010Z,100711.17
2023-12-07T16:37:31.628Z,100713.11
2023-12-07T16:40:00.845Z,100716.61
2023-12-07T16:42:30.638Z,100721.65
2023-12-07T16:44:59.671Z,100725.92
2023-12-07T16:47:29.731Z,100722.89
2023-12-07T16:49:59.817Z,100727.46
2023-12-07T16:52:29.851Z,100722.23
2023-12-07T16:55:00.412Z,100725.98
2023-12-07T16:57:29.610Z,100724.77
2023-12-07T16:59:59.895Z,100724.02
2023-12-07T17:02:32.063Z,100722.88
2023-12-07T17:05:02.270Z,100724.09
2023-12-07T17:07:32.020Z,100723.89
2023-12-07T17:10:01.826Z,100714.64
2023-12-07T17:12:33.158Z,100714.86
2023-12-07T17:15:02.827Z,100713.87
2023-12-07T17:17:32.175Z,100713.45
2023-12-07T17:20:01.445Z,100712.91
2023-12-07T17:22:30.514Z,100713.07
2023-12-07T17:24:59.703Z,100713.75
2023-12-07T17:27:29.051Z,100715.35
2023-12-07T17:29:59.020Z,100712.49
2023-12-07T17:32:28.914Z,100707.96
2023-12-07T17:34:59.148Z,100712.59
2023-12-07T17:37:28.854Z,100718.70
2023-12-07T17:39:58.958Z,100717.74
2023-12-07T17:42:28.923Z,100719.88
2023-12-07T17:44:59.765Z,100714.09
2023-12-07T17:47:29.539Z,100726.41
2023-12-07T17:49:59.770Z,100725.84
2023-12-07T17:52:28.910Z,100725.64
2023-12-07T17:54:58.557Z,100723.13
2023-12-07T17:57:27.903Z,100719.91
2023-12-07T17:59:57.698Z,100711.62
2023-12-07T18:02:27.580Z,100707.91
2023-12-07T18:04:56.957Z,100706.36
2023-12-07T18:07:26.292Z,100705.89
2023-12-07T18:09:59.644Z,100712.11
2023-12-07T18:12:31.575Z,100711.04
2023-12-07T18:15:02.308Z,100712.01
2023-12-07T18:17:32.112Z,100714.43
2023-12-07T18:20:01.252Z,100715.64
2023-12-07T18:22:30.937Z,100718.21
2023-12-07T18:24:59.830Z,100720.00
2023-12-07T18:27:29.672Z,100722.04
2023-12-07T18:29:59.856Z,100729.73
2023-12-07T18:32:29.341Z,100726.06
2023-12-07T18:34:58.387Z,100732.27
2023-12-07T18:37:28.304Z,100733.67
2023-12-07T18:40:00.283Z,100734.66
2023-12-07T18:42:30.392Z,100735.41
2023-12-07T18:45:00.587Z,100730.05
2023-12-07T18:47:30.013Z,100726.61
2023-12-07T18:50:00.348Z,100728.08
2023-12-07T18:52:32.300Z,100727.13
2023-12-07T18:55:02.622Z,100726.71
2023-12-07T18:57:32.226Z,100729.73
2023-12-07T19:00:01.757Z,100731.59
2023-12-07T19:02:31.741Z,100730.32
2023-12-07T19:05:01.637Z,100731.51
2023-12-07T19:07:37.398Z,100732.00
2023-12-07T19:10:10.248Z,100731.08
2023-12-07T19:12:39.824Z,100734.95
2023-12-07T19:15:10.532Z,100738.23
2023-12-07T19:17:39.707Z,100740.60
2023-12-07T19:20:10.171Z,100747.17
2023-12-07T19:22:41.025Z,100752.97
2023-12-07T19:25:10.302Z,100753.91
2023-12-07T19:27:41.238Z,100754.38
2023-12-07T19:30:11.988Z,100755.93
2023-12-07T19:32:41.461Z,100757.55
2023-12-07T19:35:11.838Z,100757.69
2023-12-07T19:37:42.157Z,100758.53
2023-12-07T19:40:13.945Z,100763.19
2023-12-07T19:42:43.115Z,100760.27
2023-12-07T19:45:12.551Z,100762.77
2023-12-07T19:47:43.368Z,100760.30
2023-12-07T19:50:12.815Z,100757.84
2023-12-07T19:52:41.834Z,100755.30
2023-12-07T19:55:10.616Z,100753.73
2023-12-07T19:57:43.906Z,100752.42
2023-12-07T20:00:15.496Z,100751.59
2023-12-07T20:02:44.487Z,100749.59
2023-12-07T20:05:13.727Z,100743.27
2023-12-07T20:07:42.893Z,100740.91
2023-12-07T20:10:12.082Z,100738.36
2023-12-07T20:12:41.462Z,100736.38
2023-12-07T20:15:12.207Z,100731.70
2023-12-07T20:17:41.828Z,100727.27
2023-12-07T20:20:12.138Z,100723.73
2023-12-07T20:22:46.385Z,100716.38
2023-12-07T20:25:23.698Z,100716.61
2023-12-07T20:27:58.097Z,100713.52
2023-12-07T20:30:27.450Z,100709.81
2023-12-07T20:32:56.831Z,100703.41
2023-12-07T20:35:25.826Z,100700.52
2023-12-07T20:37:55.757Z,100692.86
2023-12-07T20:40:25.154Z,100694.28
2023-12-07T20:42:54.565Z,100693.02
2023-12-07T20:45:23.765Z,100692.80
2023-12-07T20:47:53.313Z,100688.83
2023-12-07T20:50:24.319Z,100683.55
2023-12-07T20:52:54.754Z,100685.02
2023-12-07T20:55:24.914Z,100685.77
2023-12-07T20:57:55.746Z,100682.55
2023-12-07T21:00:26.422Z,100676.25
2023-12-07T21:02:57.823Z,100674.45
2023-12-07T21:05:27.587Z,100672.61
2023-12-07T21:07:58.039Z,100675.18
2023-12-07T21:10:27.191Z,100677.41
2023-12-07T21:12:58.642Z,100678.23
2023-12-07T21:15:27.853Z,100677.11
2023-12-07T21:17:56.929Z,100674.17
2023-12-07T21:20:27.191Z,100671.39
2023-12-07T21:22:57.602Z,100675.45
2023-12-07T21:25:27.260Z,100670.55
2023-12-07T21:27:56.897Z,100662.88
2023-12-07T21:30:26.730Z,100658.42
2023-12-07T21:32:56.665Z,100659.27
2023-12-07T21:35:28.186Z,100657.75
2023-12-07T21:37:57.620Z,100654.90
2023-12-07T21:40:27.250Z,100653.55
2023-12-07T21:42:57.758Z,100650.67
2023-12-07T21:45:27.244Z,100643.83
2023-12-07T21:47:56.894Z,100642.45
2023-12-07T21:50:26.794Z,100640.34
2023-12-07T21:52:55.698Z,100642.29
2023-12-07T21:55:25.381Z,100643.25
2023-12-07T21:57:55.683Z,100641.54
2023-12-07T22:00:25.430Z,100638.88
2023-12-07T22:02:54.877Z,100631.58
2023-12-07T22:05:24.443Z,100628.39
2023-12-07T22:07:54.031Z,100631.00
2023-12-07T22:10:29.092Z,100629.73
2023-12-07T22:12:59.347Z,100631.62
2023-12-07T22:15:31.786Z,100634.50
2023-12-07T22:18:01.286Z,100636.06
2023-12-07T22:20:32.379Z,100631.91
2023-12-07T22:23:02.726Z,100626.55
2023-12-07T22:25:32.338Z,100625.64
2023-12-07T22:28:01.196Z,100622.09
2023-12-07T22:30:29.906Z,100622.68
2023-12-07T22:32:58.821Z,100625.01
2023-12-07T22:35:29.272Z,100623.52
2023-12-07T22:37:59.450Z,100620.45
2023-12-07T22:40:28.444Z,100621.88
2023-12-07T22:42:57.022Z,100620.71
2023-12-07T22:45:26.637Z,100622.64
2023-12-07T22:47:55.368Z,100619.65
2023-12-07T22:50:24.858Z,100623.37
2023-12-07T22:52:53.405Z,100629.22
2023-12-07T22:55:22.810Z,100629.89
2023-12-07T22:57:51.547Z,100628.05
2023-12-07T23:00:21.364Z,100624.85
2023-12-07T23:02:51.179Z,100617.67
2023-12-07T23:05:19.815Z,100615.08
2023-12-07T23:07:48.879Z,100611.66
2023-12-07T23:10:18.099Z,100609.98
2023-12-07T23:12:46.687Z,100607.66
2023-12-07T23:15:15.926Z,100604.05
2023-12-07T23:17:44.777Z,100603.75
2023-12-07T23:20:13.816Z,100603.40
2023-12-07T23:22:42.462Z,100605.71
2023-12-07T23:25:11.557Z,100605.39
2023-12-07T23:27:40.040Z,100606.88
2023-12-07T23:30:10.176Z,100609.23
2023-12-07T23:32:38.911Z,100606.60
2023-12-07T23:35:08.407Z,100606.06
2023-12-07T23:37:37.606Z,100609.83
2023-12-07T23:40:07.059Z,100608.38
2023-12-07T23:42:35.527Z,100608.95
2023-12-07T23:45:05.320Z,100605.09
2023-12-07T23:47:33.888Z,100604.91
2023-12-07T23:50:03.520Z,100604.19
2023-12-07T23:52:32.116Z,100605.19
2023-12-07T23:55:00.900Z,100602.81
2023-12-07T23:57:29.488Z,100603.29
2023-12-07T23:59:58.282Z,100604.17
